sensor_id;sensor_type;location;lat;lon;timestamp;P1;durP1;ratioP1;P2;durP2;ratioP2
60726;SDS011;46577;49.004;12.120;2022-09-09T00:05:31;10.80;;;6.83;;
60726;SDS011;46577;49.004;12.120;2022-09-09T00:07:43;10.40;;;8.40;;
60726;SDS011;46577;49.004;12.120;2022-09-09T00:10:22;12.87;;;8.80;;
60726;SDS011;46577;49.004;12.120;2022-09-09T00:15:42;12.47;;;9.20;;
60726;SDS011;46577;49.004;12.120;2022-09-09T00:18:21;13.37;;;9.93;;
60726;SDS011;46577;49.004;12.120;2022-09-09T00:20:59;14.90;;;10.20;;
60726;SDS011;46577;49.004;12.120;2022-09-09T00:23:32;13.43;;;10.70;;
60726;SDS011;46577;49.004;12.120;2022-09-09T00:28:28;15.37;;;11.27;;
60726;SDS011;46577;49.004;12.120;2022-09-09T00:30:59;16.97;;;10.90;;
60726;SDS011;46577;49.004;12.120;2022-09-09T00:33:35;13.97;;;10.97;;
60726;SDS011;46577;49.004;12.120;2022-09-09T00:36:04;16.17;;;11.70;;
60726;SDS011;46577;49.004;12.120;2022-09-09T00:38:48;23.70;;;12.77;;
60726;SDS011;46577;49.004;12.120;2022-09-09T00:44:25;26.77;;;16.50;;
60726;SDS011;46577;49.004;12.120;2022-09-09T00:47:24;23.80;;;14.53;;
60726;SDS011;46577;49.004;12.120;2022-09-09T00:58:02;23.50;;;14.27;;
60726;SDS011;46577;49.004;12.120;2022-09-09T01:00:29;25.70;;;15.50;;
60726;SDS011;46577;49.004;12.120;2022-09-09T01:06:02;22.93;;;16.10;;
60726;SDS011;46577;49.004;12.120;2022-09-09T01:08:42;25.27;;;16.40;;
60726;SDS011;46577;49.004;12.120;2022-09-09T01:11:33;22.20;;;15.20;;
60726;SDS011;46577;49.004;12.120;2022-09-09T01:14:35;27.97;;;14.97;;
60726;SDS011;46577;49.004;12.120;2022-09-09T01:17:30;27.00;;;17.37;;
60726;SDS011;46577;49.004;12.120;2022-09-09T01:20:19;29.90;;;19.67;;
60726;SDS011;46577;49.004;12.120;2022-09-09T01:25:28;27.37;;;20.30;;
60726;SDS011;46577;49.004;12.120;2022-09-09T01:28:03;33.67;;;20.57;;
60726;SDS011;46577;49.004;12.120;2022-09-09T01:30:33;31.73;;;19.97;;
60726;SDS011;46577;49.004;12.120;2022-09-09T01:33:00;34.47;;;22.80;;
60726;SDS011;46577;49.004;12.120;2022-09-09T01:38:15;30.50;;;20.37;;
60726;SDS011;46577;49.004;12.120;2022-09-09T01:40:42;28.27;;;18.33;;
60726;SDS011;46577;49.004;12.120;2022-09-09T01:43:09;27.70;;;18.03;;
60726;SDS011;46577;49.004;12.120;2022-09-09T01:45:35;25.43;;;18.30;;
60726;SDS011;46577;49.004;12.120;2022-09-09T01:48:01;26.90;;;17.53;;
60726;SDS011;46577;49.004;12.120;2022-09-09T01:50:28;23.17;;;16.47;;
60726;SDS011;46577;49.004;12.120;2022-09-09T01:52:55;20.40;;;15.13;;
60726;SDS011;46577;49.004;12.120;2022-09-09T01:55:30;19.70;;;14.60;;
60726;SDS011;46577;49.004;12.120;2022-09-09T02:00:56;21.30;;;15.93;;
60726;SDS011;46577;49.004;12.120;2022-09-09T02:03:29;23.43;;;15.47;;
60726;SDS011;46577;49.004;12.120;2022-09-09T02:08:52;16.97;;;13.93;;
60726;SDS011;46577;49.004;12.120;2022-09-09T02:11:24;20.67;;;15.67;;
60726;SDS011;46577;49.004;12.120;2022-09-09T02:14:02;20.03;;;14.67;;
60726;SDS011;46577;49.004;12.120;2022-09-09T02:16:44;16.67;;;13.87;;
60726;SDS011;46577;49.004;12.120;2022-09-09T02:19:22;18.50;;;13.87;;
60726;SDS011;46577;49.004;12.120;2022-09-09T02:21:56;22.63;;;15.37;;
60726;SDS011;46577;49.004;12.120;2022-09-09T02:24:24;20.80;;;14.70;;
60726;SDS011;46577;49.004;12.120;2022-09-09T02:26:53;23.80;;;14.70;;
60726;SDS011;46577;49.004;12.120;2022-09-09T02:29:23;20.30;;;14.80;;
60726;SDS011;46577;49.004;12.120;2022-09-09T02:31:53;20.03;;;14.27;;
60726;SDS011;46577;49.004;12.120;2022-09-09T02:34:22;24.23;;;14.43;;
60726;SDS011;46577;49.004;12.120;2022-09-09T02:36:49;16.50;;;13.13;;
60726;SDS011;46577;49.004;12.120;2022-09-09T02:39:17;17.20;;;13.20;;
60726;SDS011;46577;49.004;12.120;2022-09-09T02:41:43;17.97;;;13.20;;
60726;SDS011;46577;49.004;12.120;2022-09-09T02:44:15;21.67;;;13.50;;
60726;SDS011;46577;49.004;12.120;2022-09-09T02:47:05;15.43;;;12.30;;
60726;SDS011;46577;49.004;12.120;2022-09-09T02:52:25;19.27;;;13.80;;
60726;SDS011;46577;49.004;12.120;2022-09-09T02:54:59;17.93;;;12.90;;
60726;SDS011;46577;49.004;12.120;2022-09-09T02:57:32;15.87;;;13.10;;
60726;SDS011;46577;49.004;12.120;2022-09-09T02:59:59;16.57;;;13.63;;
60726;SDS011;46577;49.004;12.120;2022-09-09T03:02:26;17.40;;;12.93;;
60726;SDS011;46577;49.004;12.120;2022-09-09T03:04:52;14.70;;;13.20;;
60726;SDS011;46577;49.004;12.120;2022-09-09T03:07:18;17.97;;;12.57;;
60726;SDS011;46577;49.004;12.120;2022-09-09T03:09:44;15.90;;;11.43;;
60726;SDS011;46577;49.004;12.120;2022-09-09T03:12:10;12.53;;;10.93;;
60726;SDS011;46577;49.004;12.120;2022-09-09T03:14:36;13.77;;;11.70;;
60726;SDS011;46577;49.004;12.120;2022-09-09T03:17:03;14.07;;;10.40;;
60726;SDS011;46577;49.004;12.120;2022-09-09T03:19:32;13.00;;;10.43;;
60726;SDS011;46577;49.004;12.120;2022-09-09T03:21:58;17.10;;;12.07;;
60726;SDS011;46577;49.004;12.120;2022-09-09T03:24:24;15.00;;;11.73;;
60726;SDS011;46577;49.004;12.120;2022-09-09T03:26:49;16.03;;;12.23;;
60726;SDS011;46577;49.004;12.120;2022-09-09T03:29:15;20.70;;;12.70;;
60726;SDS011;46577;49.004;12.120;2022-09-09T03:31:42;18.80;;;11.90;;
60726;SDS011;46577;49.004;12.120;2022-09-09T03:34:08;20.53;;;13.43;;
60726;SDS011;46577;49.004;12.120;2022-09-09T03:36:34;17.27;;;13.27;;
60726;SDS011;46577;49.004;12.120;2022-09-09T03:39:00;16.17;;;13.30;;
60726;SDS011;46577;49.004;12.120;2022-09-09T03:41:28;20.63;;;14.30;;
60726;SDS011;46577;49.004;12.120;2022-09-09T03:43:54;19.80;;;14.60;;
60726;SDS011;46577;49.004;12.120;2022-09-09T03:46:20;21.33;;;14.00;;
60726;SDS011;46577;49.004;12.120;2022-09-09T03:48:49;19.60;;;14.07;;
60726;SDS011;46577;49.004;12.120;2022-09-09T03:51:15;19.77;;;15.83;;
60726;SDS011;46577;49.004;12.120;2022-09-09T03:53:41;22.40;;;16.40;;
60726;SDS011;46577;49.004;12.120;2022-09-09T03:56:08;18.67;;;14.60;;
60726;SDS011;46577;49.004;12.120;2022-09-09T03:58:35;17.93;;;14.13;;
60726;SDS011;46577;49.004;12.120;2022-09-09T04:01:11;27.30;;;15.60;;
60726;SDS011;46577;49.004;12.120;2022-09-09T04:03:38;18.10;;;14.67;;
60726;SDS011;46577;49.004;12.120;2022-09-09T04:06:05;20.07;;;14.33;;
60726;SDS011;46577;49.004;12.120;2022-09-09T04:08:32;19.00;;;15.00;;
60726;SDS011;46577;49.004;12.120;2022-09-09T04:10:59;18.87;;;13.93;;
60726;SDS011;46577;49.004;12.120;2022-09-09T04:13:27;21.77;;;15.47;;
60726;SDS011;46577;49.004;12.120;2022-09-09T04:15:54;16.90;;;14.60;;
60726;SDS011;46577;49.004;12.120;2022-09-09T04:18:21;20.93;;;15.13;;
60726;SDS011;46577;49.004;12.120;2022-09-09T04:20:47;19.40;;;14.97;;
60726;SDS011;46577;49.004;12.120;2022-09-09T04:23:15;17.40;;;15.00;;
60726;SDS011;46577;49.004;12.120;2022-09-09T04:25:43;19.10;;;16.50;;
60726;SDS011;46577;49.004;12.120;2022-09-09T04:28:10;19.07;;;15.47;;
60726;SDS011;46577;49.004;12.120;2022-09-09T04:30:35;22.30;;;16.40;;
60726;SDS011;46577;49.004;12.120;2022-09-09T04:33:01;17.90;;;14.93;;
60726;SDS011;46577;49.004;12.120;2022-09-09T04:35:27;20.10;;;15.63;;
60726;SDS011;46577;49.004;12.120;2022-09-09T04:37:53;20.83;;;17.07;;
60726;SDS011;46577;49.004;12.120;2022-09-09T04:40:18;22.10;;;17.40;;
60726;SDS011;46577;49.004;12.120;2022-09-09T04:42:44;24.50;;;18.17;;
60726;SDS011;46577;49.004;12.120;2022-09-09T04:45:09;19.10;;;15.10;;
60726;SDS011;46577;49.004;12.120;2022-09-09T04:47:36;21.57;;;16.70;;
60726;SDS011;46577;49.004;12.120;2022-09-09T04:50:02;22.37;;;17.00;;
60726;SDS011;46577;49.004;12.120;2022-09-09T04:52:27;24.90;;;17.53;;
60726;SDS011;46577;49.004;12.120;2022-09-09T04:54:53;22.13;;;18.50;;
60726;SDS011;46577;49.004;12.120;2022-09-09T04:57:19;22.47;;;16.77;;
60726;SDS011;46577;49.004;12.120;2022-09-09T04:59:45;22.43;;;15.13;;
60726;SDS011;46577;49.004;12.120;2022-09-09T05:02:11;17.00;;;14.50;;
60726;SDS011;46577;49.004;12.120;2022-09-09T05:04:36;16.30;;;12.20;;
60726;SDS011;46577;49.004;12.120;2022-09-09T05:07:02;18.13;;;12.67;;
60726;SDS011;46577;49.004;12.120;2022-09-09T05:09:28;16.40;;;11.53;;
60726;SDS011;46577;49.004;12.120;2022-09-09T05:11:54;21.40;;;10.70;;
60726;SDS011;46577;49.004;12.120;2022-09-09T05:14:19;19.90;;;11.97;;
60726;SDS011;46577;49.004;12.120;2022-09-09T05:16:45;13.50;;;10.80;;
60726;SDS011;46577;49.004;12.120;2022-09-09T05:19:12;14.00;;;10.63;;
60726;SDS011;46577;49.004;12.120;2022-09-09T05:21:37;11.77;;;10.47;;
60726;SDS011;46577;49.004;12.120;2022-09-09T05:24:03;17.10;;;10.97;;
60726;SDS011;46577;49.004;12.120;2022-09-09T05:26:29;12.77;;;10.30;;
60726;SDS011;46577;49.004;12.120;2022-09-09T05:28:55;17.27;;;13.10;;
60726;SDS011;46577;49.004;12.120;2022-09-09T05:31:21;14.93;;;11.80;;
60726;SDS011;46577;49.004;12.120;2022-09-09T05:33:48;20.97;;;12.23;;
60726;SDS011;46577;49.004;12.120;2022-09-09T05:36:18;16.33;;;11.50;;
60726;SDS011;46577;49.004;12.120;2022-09-09T05:38:45;15.50;;;11.67;;
60726;SDS011;46577;49.004;12.120;2022-09-09T05:41:10;20.53;;;11.07;;
60726;SDS011;46577;49.004;12.120;2022-09-09T05:43:37;17.53;;;12.00;;
60726;SDS011;46577;49.004;12.120;2022-09-09T05:46:07;18.40;;;11.10;;
60726;SDS011;46577;49.004;12.120;2022-09-09T05:48:36;16.63;;;11.90;;
60726;SDS011;46577;49.004;12.120;2022-09-09T05:51:07;15.40;;;11.33;;
60726;SDS011;46577;49.004;12.120;2022-09-09T05:53:36;13.63;;;11.07;;
60726;SDS011;46577;49.004;12.120;2022-09-09T05:56:06;13.90;;;11.57;;
60726;SDS011;46577;49.004;12.120;2022-09-09T05:58:35;14.20;;;11.57;;
60726;SDS011;46577;49.004;12.120;2022-09-09T06:01:02;14.03;;;10.70;;
60726;SDS011;46577;49.004;12.120;2022-09-09T06:03:35;15.67;;;11.77;;
60726;SDS011;46577;49.004;12.120;2022-09-09T06:06:03;16.53;;;11.47;;
60726;SDS011;46577;49.004;12.120;2022-09-09T06:08:31;15.73;;;10.47;;
60726;SDS011;46577;49.004;12.120;2022-09-09T06:11:09;16.57;;;11.97;;
60726;SDS011;46577;49.004;12.120;2022-09-09T06:13:37;17.83;;;13.10;;
60726;SDS011;46577;49.004;12.120;2022-09-09T06:16:04;16.50;;;12.80;;
60726;SDS011;46577;49.004;12.120;2022-09-09T06:18:33;18.10;;;13.67;;
60726;SDS011;46577;49.004;12.120;2022-09-09T06:21:00;20.70;;;12.00;;
60726;SDS011;46577;49.004;12.120;2022-09-09T06:23:28;16.67;;;12.53;;
60726;SDS011;46577;49.004;12.120;2022-09-09T06:26:09;18.10;;;11.47;;
60726;SDS011;46577;49.004;12.120;2022-09-09T06:28:55;20.10;;;11.80;;
60726;SDS011;46577;49.004;12.120;2022-09-09T06:31:23;15.20;;;10.30;;
60726;SDS011;46577;49.004;12.120;2022-09-09T06:34:00;15.53;;;11.47;;
60726;SDS011;46577;49.004;12.120;2022-09-09T06:36:30;12.20;;;10.03;;
60726;SDS011;46577;49.004;12.120;2022-09-09T06:38:57;13.33;;;10.13;;
60726;SDS011;46577;49.004;12.120;2022-09-09T06:41:25;14.87;;;9.80;;
60726;SDS011;46577;49.004;12.120;2022-09-09T06:43:52;12.73;;;9.67;;
60726;SDS011;46577;49.004;12.120;2022-09-09T06:46:19;18.30;;;11.33;;
60726;SDS011;46577;49.004;12.120;2022-09-09T06:48:52;13.30;;;9.60;;
60726;SDS011;46577;49.004;12.120;2022-09-09T06:51:21;11.50;;;9.47;;
60726;SDS011;46577;49.004;12.120;2022-09-09T06:53:49;14.30;;;9.77;;
60726;SDS011;46577;49.004;12.120;2022-09-09T06:58:44;11.20;;;9.33;;
60726;SDS011;46577;49.004;12.120;2022-09-09T07:01:14;12.63;;;9.23;;
60726;SDS011;46577;49.004;12.120;2022-09-09T07:03:44;12.40;;;7.47;;
60726;SDS011;46577;49.004;12.120;2022-09-09T07:06:14;7.93;;;6.37;;
60726;SDS011;46577;49.004;12.120;2022-09-09T07:08:42;6.63;;;5.80;;
60726;SDS011;46577;49.004;12.120;2022-09-09T07:11:08;7.60;;;6.00;;
60726;SDS011;46577;49.004;12.120;2022-09-09T07:13:34;8.83;;;6.00;;
60726;SDS011;46577;49.004;12.120;2022-09-09T07:16:04;14.93;;;5.63;;
60726;SDS011;46577;49.004;12.120;2022-09-09T07:18:29;7.63;;;5.53;;
60726;SDS011;46577;49.004;12.120;2022-09-09T07:20:55;7.93;;;5.10;;
60726;SDS011;46577;49.004;12.120;2022-09-09T07:23:22;8.60;;;5.27;;
60726;SDS011;46577;49.004;12.120;2022-09-09T07:25:48;5.03;;;4.53;;
60726;SDS011;46577;49.004;12.120;2022-09-09T07:28:14;6.10;;;5.20;;
60726;SDS011;46577;49.004;12.120;2022-09-09T07:30:40;7.53;;;5.23;;
60726;SDS011;46577;49.004;12.120;2022-09-09T07:33:06;4.90;;;4.30;;
60726;SDS011;46577;49.004;12.120;2022-09-09T07:35:32;7.07;;;4.57;;
60726;SDS011;46577;49.004;12.120;2022-09-09T07:37:58;8.33;;;5.70;;
60726;SDS011;46577;49.004;12.120;2022-09-09T07:40:26;11.30;;;7.30;;
60726;SDS011;46577;49.004;12.120;2022-09-09T07:42:52;9.00;;;5.80;;
60726;SDS011;46577;49.004;12.120;2022-09-09T07:45:18;10.90;;;7.60;;
60726;SDS011;46577;49.004;12.120;2022-09-09T07:47:44;7.53;;;6.73;;
60726;SDS011;46577;49.004;12.120;2022-09-09T07:50:10;8.70;;;7.20;;
60726;SDS011;46577;49.004;12.120;2022-09-09T07:52:36;8.60;;;6.83;;
60726;SDS011;46577;49.004;12.120;2022-09-09T07:55:02;8.40;;;6.80;;
60726;SDS011;46577;49.004;12.120;2022-09-09T07:57:29;6.77;;;5.93;;
60726;SDS011;46577;49.004;12.120;2022-09-09T07:59:55;9.07;;;8.03;;
60726;SDS011;46577;49.004;12.120;2022-09-09T08:02:22;7.20;;;6.50;;
60726;SDS011;46577;49.004;12.120;2022-09-09T08:04:48;12.50;;;7.00;;
60726;SDS011;46577;49.004;12.120;2022-09-09T08:07:14;7.80;;;6.37;;
60726;SDS011;46577;49.004;12.120;2022-09-09T08:09:41;8.17;;;7.10;;
60726;SDS011;46577;49.004;12.120;2022-09-09T08:12:06;11.00;;;7.60;;
60726;SDS011;46577;49.004;12.120;2022-09-09T08:14:33;8.53;;;7.13;;
60726;SDS011;46577;49.004;12.120;2022-09-09T08:16:59;11.73;;;8.10;;
60726;SDS011;46577;49.004;12.120;2022-09-09T08:19:25;8.13;;;7.40;;
60726;SDS011;46577;49.004;12.120;2022-09-09T08:21:53;9.90;;;6.83;;
60726;SDS011;46577;49.004;12.120;2022-09-09T08:24:19;7.40;;;6.63;;
60726;SDS011;46577;49.004;12.120;2022-09-09T08:26:46;8.43;;;6.73;;
60726;SDS011;46577;49.004;12.120;2022-09-09T08:29:14;7.77;;;6.67;;
60726;SDS011;46577;49.004;12.120;2022-09-09T08:34:07;6.77;;;5.80;;
60726;SDS011;46577;49.004;12.120;2022-09-09T08:36:38;10.37;;;6.50;;
60726;SDS011;46577;49.004;12.120;2022-09-09T08:39:07;6.67;;;6.00;;
60726;SDS011;46577;49.004;12.120;2022-09-09T08:55:33;6.30;;;4.53;;
60726;SDS011;46577;49.004;12.120;2022-09-09T08:58:22;5.03;;;4.53;;
60726;SDS011;46577;49.004;12.120;2022-09-09T09:07:04;5.07;;;4.27;;
60726;SDS011;46577;49.004;12.120;2022-09-09T09:09:49;5.30;;;4.10;;
60726;SDS011;46577;49.004;12.120;2022-09-09T09:12:24;5.23;;;4.30;;
60726;SDS011;46577;49.004;12.120;2022-09-09T09:14:54;9.77;;;4.60;;
60726;SDS011;46577;49.004;12.120;2022-09-09T09:17:24;8.17;;;4.10;;
60726;SDS011;46577;49.004;12.120;2022-09-09T09:19:53;5.57;;;5.07;;
60726;SDS011;46577;49.004;12.120;2022-09-09T09:22:20;6.13;;;3.60;;
60726;SDS011;46577;49.004;12.120;2022-09-09T09:30:18;3.97;;;3.50;;
60726;SDS011;46577;49.004;12.120;2022-09-09T09:32:52;5.00;;;3.27;;
60726;SDS011;46577;49.004;12.120;2022-09-09T09:35:18;7.60;;;3.57;;
60726;SDS011;46577;49.004;12.120;2022-09-09T09:37:44;3.40;;;2.83;;
60726;SDS011;46577;49.004;12.120;2022-09-09T09:42:37;2.77;;;2.30;;
60726;SDS011;46577;49.004;12.120;2022-09-09T09:45:55;3.80;;;3.13;;
60726;SDS011;46577;49.004;12.120;2022-09-09T09:48:11;3.73;;;2.80;;
60726;SDS011;46577;49.004;12.120;2022-09-09T09:50:48;4.53;;;2.47;;
60726;SDS011;46577;49.004;12.120;2022-09-09T09:55:55;3.00;;;2.37;;
60726;SDS011;46577;49.004;12.120;2022-09-09T09:58:21;7.00;;;2.80;;
60726;SDS011;46577;49.004;12.120;2022-09-09T10:00:48;6.13;;;3.00;;
60726;SDS011;46577;49.004;12.120;2022-09-09T10:03:22;2.97;;;2.60;;
60726;SDS011;46577;49.004;12.120;2022-09-09T10:05:49;3.03;;;2.30;;
60726;SDS011;46577;49.004;12.120;2022-09-09T10:08:16;4.90;;;2.10;;
60726;SDS011;46577;49.004;12.120;2022-09-09T10:13:21;3.67;;;2.00;;
60726;SDS011;46577;49.004;12.120;2022-09-09T10:42:55;4.10;;;2.13;;
60726;SDS011;46577;49.004;12.120;2022-09-09T10:45:35;2.30;;;1.93;;
60726;SDS011;46577;49.004;12.120;2022-09-09T10:51:13;2.40;;;1.90;;
60726;SDS011;46577;49.004;12.120;2022-09-09T10:56:41;6.23;;;2.23;;
60726;SDS011;46577;49.004;12.120;2022-09-09T10:59:14;3.30;;;1.97;;
60726;SDS011;46577;49.004;12.120;2022-09-09T11:06:44;9.37;;;1.70;;
60726;SDS011;46577;49.004;12.120;2022-09-09T11:09:17;3.97;;;1.70;;
60726;SDS011;46577;49.004;12.120;2022-09-09T11:11:53;3.47;;;1.73;;
60726;SDS011;46577;49.004;12.120;2022-09-09T11:17:10;3.20;;;1.67;;
60726;SDS011;46577;49.004;12.120;2022-09-09T11:19:46;3.07;;;1.40;;
60726;SDS011;46577;49.004;12.120;2022-09-09T11:22:18;4.85;;;1.35;;
60726;SDS011;46577;49.004;12.120;2022-09-09T11:33:27;2.30;;;1.23;;
60726;SDS011;46577;49.004;12.120;2022-09-09T11:42:15;2.93;;;1.30;;
60726;SDS011;46577;49.004;12.120;2022-09-09T11:44:43;7.53;;;3.57;;
60726;SDS011;46577;49.004;12.120;2022-09-09T11:50:40;3.27;;;2.00;;
60726;SDS011;46577;49.004;12.120;2022-09-09T11:52:42;2.90;;;1.70;;
60726;SDS011;46577;49.004;12.120;2022-09-09T11:55:11;3.00;;;1.40;;
60726;SDS011;46577;49.004;12.120;2022-09-09T11:57:57;2.93;;;1.50;;
60726;SDS011;46577;49.004;12.120;2022-09-09T12:01:12;2.97;;;1.33;;
60726;SDS011;46577;49.004;12.120;2022-09-09T12:06:30;1.70;;;1.60;;
60726;SDS011;46577;49.004;12.120;2022-09-09T12:09:08;1.40;;;1.27;;
60726;SDS011;46577;49.004;12.120;2022-09-09T12:11:43;2.40;;;1.93;;
60726;SDS011;46577;49.004;12.120;2022-09-09T12:14:18;2.73;;;1.90;;
60726;SDS011;46577;49.004;12.120;2022-09-09T12:16:46;4.93;;;2.10;;
60726;SDS011;46577;49.004;12.120;2022-09-09T12:19:16;5.10;;;2.50;;
60726;SDS011;46577;49.004;12.120;2022-09-09T12:24:14;6.37;;;1.70;;
60726;SDS011;46577;49.004;12.120;2022-09-09T12:27:07;7.63;;;2.20;;
60726;SDS011;46577;49.004;12.120;2022-09-09T12:29:44;4.20;;;1.70;;
60726;SDS011;46577;49.004;12.120;2022-09-09T12:32:22;2.50;;;1.23;;
60726;SDS011;46577;49.004;12.120;2022-09-09T12:34:54;5.20;;;1.90;;
60726;SDS011;46577;49.004;12.120;2022-09-09T12:42:46;3.70;;;1.70;;
60726;SDS011;46577;49.004;12.120;2022-09-09T12:45:25;3.07;;;2.37;;
60726;SDS011;46577;49.004;12.120;2022-09-09T12:48:02;8.70;;;2.10;;
60726;SDS011;46577;49.004;12.120;2022-09-09T12:50:37;2.93;;;1.80;;
60726;SDS011;46577;49.004;12.120;2022-09-09T12:53:10;1.90;;;1.63;;
60726;SDS011;46577;49.004;12.120;2022-09-09T12:55:49;3.07;;;2.03;;
60726;SDS011;46577;49.004;12.120;2022-09-09T12:58:17;4.90;;;1.97;;
60726;SDS011;46577;49.004;12.120;2022-09-09T13:00:54;3.90;;;1.83;;
60726;SDS011;46577;49.004;12.120;2022-09-09T13:03:24;3.33;;;2.10;;
60726;SDS011;46577;49.004;12.120;2022-09-09T13:05:51;4.80;;;1.73;;
60726;SDS011;46577;49.004;12.120;2022-09-09T13:08:18;2.50;;;1.80;;
60726;SDS011;46577;49.004;12.120;2022-09-09T13:13:14;2.60;;;1.50;;
60726;SDS011;46577;49.004;12.120;2022-09-09T13:15:48;4.40;;;2.27;;
60726;SDS011;46577;49.004;12.120;2022-09-09T13:18:20;6.00;;;2.13;;
60726;SDS011;46577;49.004;12.120;2022-09-09T13:20:48;2.80;;;2.10;;
60726;SDS011;46577;49.004;12.120;2022-09-09T13:23:15;4.73;;;2.07;;
60726;SDS011;46577;49.004;12.120;2022-09-09T13:25:52;5.07;;;2.00;;
60726;SDS011;46577;49.004;12.120;2022-09-09T13:28:25;4.77;;;1.90;;
60726;SDS011;46577;49.004;12.120;2022-09-09T13:31:36;2.10;;;1.80;;
60726;SDS011;46577;49.004;12.120;2022-09-09T13:33:47;3.57;;;1.67;;
60726;SDS011;46577;49.004;12.120;2022-09-09T13:36:12;4.43;;;2.00;;
60726;SDS011;46577;49.004;12.120;2022-09-09T13:41:19;3.10;;;1.67;;
60726;SDS011;46577;49.004;12.120;2022-09-09T13:43:47;2.40;;;1.60;;
60726;SDS011;46577;49.004;12.120;2022-09-09T13:49:00;3.10;;;1.40;;
60726;SDS011;46577;49.004;12.120;2022-09-09T13:51:44;2.73;;;1.37;;
60726;SDS011;46577;49.004;12.120;2022-09-09T13:54:15;2.53;;;1.20;;
60726;SDS011;46577;49.004;12.120;2022-09-09T13:56:42;4.23;;;1.50;;
60726;SDS011;46577;49.004;12.120;2022-09-09T13:59:12;3.13;;;1.13;;
60726;SDS011;46577;49.004;12.120;2022-09-09T14:01:40;5.03;;;1.37;;
60726;SDS011;46577;49.004;12.120;2022-09-09T14:04:06;2.20;;;1.50;;
60726;SDS011;46577;49.004;12.120;2022-09-09T14:06:34;4.87;;;2.03;;
60726;SDS011;46577;49.004;12.120;2022-09-09T14:09:03;2.13;;;1.70;;
60726;SDS011;46577;49.004;12.120;2022-09-09T14:11:30;4.33;;;1.57;;
60726;SDS011;46577;49.004;12.120;2022-09-09T14:13:55;3.57;;;1.37;;
60726;SDS011;46577;49.004;12.120;2022-09-09T14:16:21;4.30;;;1.33;;
60726;SDS011;46577;49.004;12.120;2022-09-09T14:18:47;1.43;;;1.20;;
60726;SDS011;46577;49.004;12.120;2022-09-09T14:21:13;1.50;;;1.20;;
60726;SDS011;46577;49.004;12.120;2022-09-09T14:23:39;1.50;;;1.20;;
60726;SDS011;46577;49.004;12.120;2022-09-09T14:26:05;2.70;;;1.37;;
60726;SDS011;46577;49.004;12.120;2022-09-09T14:28:31;2.07;;;1.60;;
60726;SDS011;46577;49.004;12.120;2022-09-09T14:31:01;2.73;;;1.60;;
60726;SDS011;46577;49.004;12.120;2022-09-09T14:33:28;2.63;;;1.13;;
60726;SDS011;46577;49.004;12.120;2022-09-09T14:35:57;6.40;;;2.70;;
60726;SDS011;46577;49.004;12.120;2022-09-09T14:38:24;2.57;;;1.60;;
60726;SDS011;46577;49.004;12.120;2022-09-09T14:40:53;2.47;;;1.23;;
60726;SDS011;46577;49.004;12.120;2022-09-09T14:43:19;2.40;;;1.00;;
60726;SDS011;46577;49.004;12.120;2022-09-09T14:45:45;2.80;;;1.33;;
60726;SDS011;46577;49.004;12.120;2022-09-09T14:48:12;5.40;;;1.13;;
60726;SDS011;46577;49.004;12.120;2022-09-09T14:50:39;2.50;;;1.00;;
60726;SDS011;46577;49.004;12.120;2022-09-09T14:53:07;2.20;;;1.00;;
60726;SDS011;46577;49.004;12.120;2022-09-09T14:55:33;2.20;;;1.20;;
60726;SDS011;46577;49.004;12.120;2022-09-09T14:57:59;2.20;;;0.80;;
60726;SDS011;46577;49.004;12.120;2022-09-09T15:00:25;10.13;;;1.70;;
60726;SDS011;46577;49.004;12.120;2022-09-09T15:02:53;4.70;;;1.43;;
60726;SDS011;46577;49.004;12.120;2022-09-09T15:05:20;3.30;;;1.13;;
60726;SDS011;46577;49.004;12.120;2022-09-09T15:07:46;3.30;;;1.37;;
60726;SDS011;46577;49.004;12.120;2022-09-09T15:10:13;1.47;;;1.20;;
60726;SDS011;46577;49.004;12.120;2022-09-09T15:12:39;2.97;;;1.40;;
60726;SDS011;46577;49.004;12.120;2022-09-09T15:15:06;2.03;;;1.30;;
60726;SDS011;46577;49.004;12.120;2022-09-09T15:17:33;6.00;;;1.57;;
60726;SDS011;46577;49.004;12.120;2022-09-09T15:19:59;2.27;;;1.20;;
60726;SDS011;46577;49.004;12.120;2022-09-09T15:22:24;3.10;;;1.37;;
60726;SDS011;46577;49.004;12.120;2022-09-09T15:24:50;4.57;;;1.60;;
60726;SDS011;46577;49.004;12.120;2022-09-09T15:27:16;3.73;;;1.30;;
60726;SDS011;46577;49.004;12.120;2022-09-09T15:29:42;3.33;;;1.10;;
60726;SDS011;46577;49.004;12.120;2022-09-09T15:32:09;2.97;;;1.47;;
60726;SDS011;46577;49.004;12.120;2022-09-09T15:34:35;4.60;;;1.30;;
60726;SDS011;46577;49.004;12.120;2022-09-09T15:37:00;3.03;;;1.10;;
60726;SDS011;46577;49.004;12.120;2022-09-09T15:39:26;2.97;;;1.30;;
60726;SDS011;46577;49.004;12.120;2022-09-09T15:41:51;2.60;;;1.10;;
60726;SDS011;46577;49.004;12.120;2022-09-09T15:44:17;4.03;;;2.00;;
60726;SDS011;46577;49.004;12.120;2022-09-09T15:46:48;2.10;;;1.50;;
60726;SDS011;46577;49.004;12.120;2022-09-09T15:49:16;4.00;;;1.43;;
60726;SDS011;46577;49.004;12.120;2022-09-09T15:51:44;2.80;;;1.10;;
60726;SDS011;46577;49.004;12.120;2022-09-09T15:54:17;1.80;;;1.03;;
60726;SDS011;46577;49.004;12.120;2022-09-09T15:56:45;2.00;;;1.00;;
60726;SDS011;46577;49.004;12.120;2022-09-09T15:59:13;3.13;;;1.00;;
60726;SDS011;46577;49.004;12.120;2022-09-09T16:01:39;2.30;;;1.20;;
60726;SDS011;46577;49.004;12.120;2022-09-09T16:04:07;3.67;;;1.30;;
60726;SDS011;46577;49.004;12.120;2022-09-09T16:06:33;4.03;;;0.83;;
60726;SDS011;46577;49.004;12.120;2022-09-09T16:08:59;1.00;;;0.90;;
60726;SDS011;46577;49.004;12.120;2022-09-09T16:11:31;4.37;;;0.97;;
60726;SDS011;46577;49.004;12.120;2022-09-09T16:13:59;2.63;;;1.10;;
60726;SDS011;46577;49.004;12.120;2022-09-09T16:16:26;8.03;;;0.93;;
60726;SDS011;46577;49.004;12.120;2022-09-09T16:18:54;2.57;;;0.93;;
60726;SDS011;46577;49.004;12.120;2022-09-09T16:21:22;2.20;;;0.90;;
60726;SDS011;46577;49.004;12.120;2022-09-09T16:23:55;1.80;;;1.37;;
60726;SDS011;46577;49.004;12.120;2022-09-09T16:26:22;5.03;;;1.20;;
60726;SDS011;46577;49.004;12.120;2022-09-09T16:28:48;3.40;;;1.40;;
60726;SDS011;46577;49.004;12.120;2022-09-09T16:31:21;2.00;;;1.10;;
60726;SDS011;46577;49.004;12.120;2022-09-09T16:33:48;4.47;;;1.67;;
60726;SDS011;46577;49.004;12.120;2022-09-09T16:36:16;38.43;;;13.37;;
60726;SDS011;46577;49.004;12.120;2022-09-09T16:38:42;9.00;;;1.50;;
60726;SDS011;46577;49.004;12.120;2022-09-09T16:41:09;2.90;;;1.20;;
60726;SDS011;46577;49.004;12.120;2022-09-09T16:43:36;1.40;;;0.73;;
60726;SDS011;46577;49.004;12.120;2022-09-09T16:46:03;4.27;;;0.97;;
60726;SDS011;46577;49.004;12.120;2022-09-09T16:48:36;2.70;;;0.90;;
60726;SDS011;46577;49.004;12.120;2022-09-09T16:51:02;5.20;;;1.30;;
60726;SDS011;46577;49.004;12.120;2022-09-09T16:53:31;4.60;;;3.10;;
60726;SDS011;46577;49.004;12.120;2022-09-09T16:55:57;7.93;;;4.57;;
60726;SDS011;46577;49.004;12.120;2022-09-09T16:58:23;1.63;;;1.27;;
60726;SDS011;46577;49.004;12.120;2022-09-09T17:00:48;1.13;;;0.70;;
60726;SDS011;46577;49.004;12.120;2022-09-09T17:03:16;1.10;;;0.90;;
60726;SDS011;46577;49.004;12.120;2022-09-09T17:05:41;9.83;;;0.97;;
60726;SDS011;46577;49.004;12.120;2022-09-09T17:08:07;1.10;;;1.00;;
60726;SDS011;46577;49.004;12.120;2022-09-09T17:10:34;0.90;;;0.80;;